Time;durP1;ratioP1;P1;durP2;ratioP2;P2;SDS_P1;SDS_P2;PMS_P1;PMS_P2;Temp;Humidity;BMP_temperature;BMP_pressure;BME280_temperature;BME280_humidity;BME280_pressure;Samples;Min_cycle;Max_cycle;Signal;HPM_P1;HPM_P2
2020/12/16 00:01:04;;;;;;;19.35;9.15;;;8.80;99.90;;;;;;4981955;28;20202;-80
2020/12/16 00:03:30;;;;;;;18.58;9.75;;;8.80;99.90;;;;;;4963975;28;20218;-78
2020/12/16 00:05:59;;;;;;;14.10;8.97;;;8.90;99.90;;;;;;4981225;28;20561;-79
2020/12/16 00:08:25;;;;;;;16.20;8.95;;;8.90;99.90;;;;;;4982532;28;20179;-79
2020/12/16 00:10:50;;;;;;;15.47;9.70;;;8.90;99.90;;;;;;4998897;28;20186;-80
2020/12/16 00:13:16;;;;;;;17.00;8.30;;;8.80;99.90;;;;;;4981436;28;20198;-79
2020/12/16 00:15:44;;;;;;;19.20;10.10;;;8.90;99.90;;;;;;4981338;28;20577;-78
2020/12/16 00:18:11;;;;;;;18.00;9.50;;;9.00;99.90;;;;;;4965020;28;20207;-79
2020/12/16 00:20:36;;;;;;;16.95;9.15;;;9.00;99.90;;;;;;4985054;28;20186;-79
2020/12/16 00:23:07;;;;;;;18.03;9.10;;;8.90;99.90;;;;;;4968493;28;20184;-80
2020/12/16 00:25:33;;;;;;;16.55;10.15;;;8.90;99.90;;;;;;4984538;28;20509;-79
2020/12/16 00:28:22;;;;;;;22.23;9.35;;;8.90;99.90;;;;;;5017009;28;20197;-77
2020/12/16 00:30:48;;;;;;;15.98;9.07;;;8.90;99.90;;;;;;5018956;28;20170;-79
2020/12/16 00:33:18;;;;;;;16.63;9.70;;;8.90;99.90;;;;;;5000237;28;20309;-79
2020/12/16 00:35:53;;;;;;;15.63;8.95;;;9.00;99.90;;;;;;5018465;28;20405;-79
2020/12/16 00:38:20;;;;;;;13.13;7.82;;;8.90;99.90;;;;;;5000094;28;20205;-79
2020/12/16 00:40:46;;;;;;;13.80;8.50;;;8.90;99.90;;;;;;5018983;28;20269;-80
2020/12/16 00:43:11;;;;;;;17.73;10.17;;;9.00;99.90;;;;;;5001895;28;20681;-80
2020/12/16 00:45:37;;;;;;;19.33;9.23;;;8.90;99.90;;;;;;5000951;28;20178;-79
2020/12/16 00:48:03;;;;;;;17.37;10.90;;;8.90;99.90;;;;;;5000751;28;20487;-80
2020/12/16 00:50:28;;;;;;;14.80;9.47;;;8.90;99.90;;;;;;4999357;28;20703;-81
2020/12/16 00:52:57;;;;;;;17.17;9.17;;;8.90;99.90;;;;;;4966333;28;20209;-80
2020/12/16 00:55:23;;;;;;;13.38;9.38;;;9.00;99.90;;;;;;5016865;28;20202;-79
2020/12/16 00:57:48;;;;;;;15.40;9.40;;;9.00;99.90;;;;;;5017260;28;20301;-80
2020/12/16 01:00:16;;;;;;;15.60;9.00;;;9.10;99.90;;;;;;4983035;28;20181;-80
2020/12/16 01:02:43;;;;;;;15.73;9.27;;;8.90;99.90;;;;;;4982476;28;20488;-80
2020/12/16 01:05:09;;;;;;;15.48;8.75;;;9.00;99.90;;;;;;4999172;28;20274;-80
2020/12/16 01:07:38;;;;;;;15.63;9.52;;;9.00;99.90;;;;;;4999591;28;20280;-81
2020/12/16 01:10:04;;;;;;;23.10;10.07;;;9.10;99.90;;;;;;5015950;28;20166;-80
2020/12/16 01:12:30;;;;;;;14.40;8.63;;;9.10;99.90;;;;;;5016620;28;20181;-80
2020/12/16 01:14:55;;;;;;;16.27;9.40;;;9.10;99.90;;;;;;5016103;28;20194;-80
2020/12/16 01:17:21;;;;;;;16.27;9.47;;;9.10;99.90;;;;;;4966687;28;20181;-80
2020/12/16 01:19:47;;;;;;;13.70;8.17;;;9.20;99.90;;;;;;4979493;28;20225;-80
2020/12/16 01:22:12;;;;;;;22.13;10.73;;;9.20;99.90;;;;;;4979867;28;20171;-80
2020/12/16 01:24:38;;;;;;;14.47;8.50;;;9.20;99.90;;;;;;4996478;28;20193;-80
2020/12/16 01:27:04;;;;;;;22.93;9.53;;;9.10;99.90;;;;;;4996884;28;20198;-79
2020/12/16 01:29:32;;;;;;;16.90;9.10;;;9.20;99.90;;;;;;4996640;28;20209;-80
2020/12/16 01:31:58;;;;;;;17.13;8.98;;;9.20;99.90;;;;;;4979887;28;20178;-80
2020/12/16 01:34:23;;;;;;;20.87;10.97;;;9.20;99.90;;;;;;4989602;28;20186;-80
2020/12/16 01:36:49;;;;;;;19.40;10.20;;;9.20;99.90;;;;;;5016602;28;20173;-80
2020/12/16 01:39:17;;;;;;;21.98;9.95;;;9.20;99.90;;;;;;4998794;28;20237;-80
2020/12/16 01:41:45;;;;;;;15.02;8.73;;;9.30;99.90;;;;;;5016169;28;20475;-80
2020/12/16 01:44:19;;;;;;;14.90;7.65;;;9.20;99.90;;;;;;5016147;28;20194;-80
2020/12/16 01:46:56;;;;;;;11.60;8.18;;;9.20;99.90;;;;;;4998624;28;20232;-79
2020/12/16 01:49:23;;;;;;;18.88;11.95;;;9.20;99.90;;;;;;4998214;28;20182;-80
2020/12/16 01:52:04;;;;;;;18.83;9.32;;;9.20;99.90;;;;;;4997900;28;20174;-81
2020/12/16 01:54:35;;;;;;;17.30;10.20;;;9.40;99.90;;;;;;4998041;28;20228;-79
2020/12/16 01:57:03;;;;;;;16.58;8.52;;;9.30;99.90;;;;;;4981293;28;20258;-80
2020/12/16 01:59:34;;;;;;;15.13;9.10;;;9.10;99.90;;;;;;4997054;28;20210;-80
2020/12/16 02:02:02;;;;;;;17.15;10.10;;;9.30;99.90;;;;;;5015253;28;20240;-80
2020/12/16 02:04:33;;;;;;;17.80;10.25;;;9.30;99.90;;;;;;5015330;28;20233;-80
2020/12/16 02:07:01;;;;;;;15.95;9.90;;;9.30;99.90;;;;;;5016018;28;20185;-80
2020/12/16 02:09:26;;;;;;;16.98;7.68;;;9.30;99.90;;;;;;4982323;28;20263;-80
2020/12/16 02:11:52;;;;;;;17.27;9.70;;;9.40;99.90;;;;;;4998535;28;20206;-80
2020/12/16 02:14:19;;;;;;;23.77;11.17;;;9.30;99.90;;;;;;4987395;28;20468;-80
2020/12/16 02:16:44;;;;;;;22.02;9.60;;;9.30;99.90;;;;;;5005446;28;20170;-80
2020/12/16 02:19:10;;;;;;;19.90;9.50;;;9.30;99.90;;;;;;5015101;28;20298;-80
2020/12/16 02:21:37;;;;;;;17.45;9.43;;;9.30;99.90;;;;;;4985613;28;20171;-81
2020/12/16 02:24:05;;;;;;;18.98;9.38;;;9.40;99.90;;;;;;5002615;28;20232;-80
2020/12/16 02:26:34;;;;;;;16.98;9.45;;;9.50;99.90;;;;;;4987001;28;20217;-79
2020/12/16 02:29:00;;;;;;;21.67;11.38;;;9.50;99.90;;;;;;4985706;28;20704;-79
2020/12/16 02:31:28;;;;;;;18.50;10.33;;;9.50;99.90;;;;;;5002140;28;20210;-79
2020/12/16 02:33:54;;;;;;;16.50;9.30;;;9.40;99.90;;;;;;5008156;28;20452;-80
2020/12/16 02:36:20;;;;;;;17.02;10.23;;;9.50;99.90;;;;;;5021996;28;20174;-81
2020/12/16 02:38:47;;;;;;;18.40;9.97;;;9.40;99.90;;;;;;5004540;28;20212;-79
2020/12/16 02:41:12;;;;;;;18.15;11.10;;;9.50;99.90;;;;;;5002779;28;20173;-79
2020/12/16 02:43:38;;;;;;;18.50;9.67;;;9.40;99.90;;;;;;5002981;28;20312;-79
2020/12/16 02:46:07;;;;;;;16.60;9.70;;;9.40;99.90;;;;;;5020472;28;20174;-79
2020/12/16 02:48:32;;;;;;;20.25;10.27;;;9.50;99.90;;;;;;5020499;28;20501;-79
2020/12/16 02:50:58;;;;;;;16.90;9.40;;;9.40;99.90;;;;;;5020392;28;20202;-79
2020/12/16 02:53:24;;;;;;;18.33;9.70;;;9.40;99.90;;;;;;5020903;28;20205;-78
2020/12/16 02:55:49;;;;;;;19.33;9.63;;;9.40;99.90;;;;;;5002558;28;20186;-78
2020/12/16 02:58:15;;;;;;;17.50;10.00;;;9.40;99.90;;;;;;5020043;28;20205;-79
2020/12/16 03:00:40;;;;;;;17.30;10.00;;;9.50;99.90;;;;;;5020567;28;20185;-79
2020/12/16 03:03:06;;;;;;;18.80;9.50;;;9.40;99.90;;;;;;5002974;28;20251;-79
2020/12/16 03:05:32;;;;;;;19.10;9.30;;;9.40;99.90;;;;;;5004068;28;20579;-79
2020/12/16 03:07:57;;;;;;;14.30;8.47;;;9.50;99.90;;;;;;5002545;28;20193;-78
2020/12/16 03:10:23;;;;;;;22.10;9.73;;;9.50;99.90;;;;;;5020130;28;20178;-78
2020/12/16 03:12:49;;;;;;;18.93;9.80;;;9.40;99.90;;;;;;5002984;28;20170;-79
2020/12/16 03:15:14;;;;;;;19.40;9.23;;;9.40;99.90;;;;;;5003050;28;20178;-79
2020/12/16 03:17:40;;;;;;;14.27;9.20;;;9.40;99.90;;;;;;5020818;28;20825;-80
2020/12/16 03:20:06;;;;;;;21.00;10.70;;;9.50;99.90;;;;;;4967608;28;20175;-79
2020/12/16 03:22:31;;;;;;;17.10;9.17;;;9.50;99.90;;;;;;5001514;28;20167;-79
2020/12/16 03:24:57;;;;;;;17.97;9.37;;;9.50;99.90;;;;;;4999309;28;20773;-80
2020/12/16 03:27:23;;;;;;;18.83;9.70;;;9.60;99.90;;;;;;4998800;28;20171;-80
2020/12/16 03:29:48;;;;;;;18.23;9.03;;;9.60;99.90;;;;;;4981686;28;20175;-80
2020/12/16 03:32:14;;;;;;;19.90;10.87;;;9.60;99.90;;;;;;4981515;28;20182;-79
2020/12/16 03:34:40;;;;;;;20.83;11.30;;;9.60;99.90;;;;;;5010850;28;20197;-80
2020/12/16 03:37:05;;;;;;;20.93;10.00;;;9.50;99.90;;;;;;4999800;28;20308;-79
2020/12/16 03:39:31;;;;;;;20.63;10.80;;;9.60;99.90;;;;;;5016635;28;20217;-80
2020/12/16 03:41:57;;;;;;;17.87;10.03;;;9.50;99.90;;;;;;5017081;28;20189;-79
2020/12/16 03:44:22;;;;;;;14.77;8.57;;;9.60;99.90;;;;;;4999710;28;20256;-79
2020/12/16 03:46:52;;;;;;;15.47;9.00;;;9.70;99.90;;;;;;5017128;28;20246;-79
2020/12/16 03:49:20;;;;;;;18.52;9.77;;;9.60;99.90;;;;;;4999882;28;20977;-78
2020/12/16 03:51:50;;;;;;;19.50;10.02;;;9.60;99.90;;;;;;4998961;28;20182;-79
2020/12/16 03:54:16;;;;;;;16.65;9.85;;;9.60;99.90;;;;;;5016413;28;20197;-79
2020/12/16 03:56:41;;;;;;;21.20;9.00;;;9.60;99.90;;;;;;4999131;28;20182;-79
2020/12/16 03:59:07;;;;;;;21.37;10.77;;;9.60;99.90;;;;;;4999230;28;20206;-79
2020/12/16 04:01:33;;;;;;;17.10;9.70;;;9.60;99.90;;;;;;4982951;28;20231;-79
2020/12/16 04:03:58;;;;;;;23.87;11.20;;;9.60;99.90;;;;;;4999008;28;20815;-78
2020/12/16 04:06:24;;;;;;;17.43;9.10;;;9.60;99.90;;;;;;5015691;28;20178;-79
2020/12/16 04:08:50;;;;;;;18.67;9.43;;;9.40;99.90;;;;;;4997826;28;20170;-79
2020/12/16 04:11:18;;;;;;;18.80;10.60;;;9.50;99.90;;;;;;4998815;28;20671;-79
2020/12/16 04:13:44;;;;;;;20.55;10.75;;;9.60;99.90;;;;;;5015525;28;20244;-79
2020/12/16 04:16:19;;;;;;;21.27;10.32;;;9.60;99.90;;;;;;5016124;28;20170;-79
2020/12/16 04:18:46;;;;;;;17.35;9.07;;;9.60;99.90;;;;;;4994630;28;20280;-80
2020/12/16 04:21:12;;;;;;;24.52;11.82;;;9.60;99.90;;;;;;4979321;28;20182;-79
2020/12/16 04:23:38;;;;;;;19.67;9.68;;;9.60;99.90;;;;;;4979495;28;20205;-80
2020/12/16 04:26:04;;;;;;;23.88;11.60;;;9.60;99.90;;;;;;4997810;28;20178;-80
2020/12/16 04:28:30;;;;;;;20.40;10.73;;;9.50;99.90;;;;;;4997929;28;20167;-79
2020/12/16 04:30:59;;;;;;;21.55;11.35;;;9.50;99.90;;;;;;4980045;28;20414;-79
2020/12/16 04:33:25;;;;;;;22.00;10.93;;;9.60;99.90;;;;;;4982202;28;20256;-79
2020/12/16 04:35:51;;;;;;;20.17;11.70;;;9.60;99.90;;;;;;5000732;28;20629;-80
2020/12/16 04:38:16;;;;;;;21.70;10.00;;;9.50;99.90;;;;;;5016330;28;20701;-79
2020/12/16 04:40:42;;;;;;;22.30;12.50;;;9.50;99.90;;;;;;5016108;28;20197;-80
2020/12/16 04:43:09;;;;;;;22.40;12.43;;;9.50;99.90;;;;;;5015514;28;20244;-79
2020/12/16 04:45:38;;;;;;;17.67;10.02;;;9.50;99.90;;;;;;4999567;28;20257;-79
2020/12/16 04:48:12;;;;;;;24.05;11.98;;;9.60;99.90;;;;;;4998451;28;20241;-78
2020/12/16 04:50:38;;;;;;;20.27;11.85;;;9.60;99.90;;;;;;5017117;28;20173;-79
2020/12/16 04:53:07;;;;;;;19.60;11.13;;;9.70;99.90;;;;;;4998973;28;20186;-79
2020/12/16 04:55:34;;;;;;;26.83;10.73;;;9.50;99.90;;;;;;5016766;28;20170;-79
2020/12/16 04:58:01;;;;;;;20.30;11.15;;;9.60;99.90;;;;;;4999260;28;20205;-79
2020/12/16 05:00:28;;;;;;;17.38;9.82;;;9.50;99.90;;;;;;5016933;28;20194;-79
2020/12/16 05:02:55;;;;;;;25.73;10.93;;;9.50;99.90;;;;;;5016433;28;20171;-80
2020/12/16 05:05:22;;;;;;;23.42;12.20;;;9.60;99.90;;;;;;5015799;28;20205;-79
2020/12/16 05:07:48;;;;;;;20.92;11.88;;;9.50;99.90;;;;;;5015312;28;20186;-79
2020/12/16 05:10:33;;;;;;;24.40;10.32;;;9.60;99.90;;;;;;4965446;28;20191;-79
2020/12/16 05:13:13;;;;;;;22.42;10.40;;;9.70;99.90;;;;;;4997599;28;20178;-80
2020/12/16 05:15:40;;;;;;;21.10;10.27;;;9.60;99.90;;;;;;5015126;28;20270;-80
2020/12/16 05:18:07;;;;;;;20.77;10.15;;;9.70;99.90;;;;;;5015383;28;20252;-80
2020/12/16 05:20:32;;;;;;;20.60;10.15;;;9.70;99.90;;;;;;4980016;28;20198;-79
2020/12/16 05:23:00;;;;;;;17.27;9.27;;;9.70;99.90;;;;;;4978164;28;20171;-79
2020/12/16 05:25:27;;;;;;;20.42;9.85;;;9.70;99.90;;;;;;4995470;28;20173;-79
2020/12/16 05:27:52;;;;;;;22.08;12.60;;;9.70;99.90;;;;;;4995575;28;20167;-78
2020/12/16 05:30:18;;;;;;;19.57;10.00;;;9.80;99.90;;;;;;4978511;28;20191;-80
2020/12/16 05:32:44;;;;;;;19.75;10.90;;;9.70;99.90;;;;;;4978529;28;20425;-79
2020/12/16 05:35:35;;;;;;;25.80;11.30;;;9.80;99.90;;;;;;4994393;28;20591;-78
2020/12/16 05:38:07;;;;;;;19.75;10.23;;;9.80;99.90;;;;;;4995734;28;20193;-79
2020/12/16 05:40:36;;;;;;;19.92;10.55;;;9.70;99.90;;;;;;4996102;28;20178;-80
2020/12/16 05:43:02;;;;;;;18.10;9.10;;;9.70;99.90;;;;;;5013701;28;20544;-81
2020/12/16 05:45:29;;;;;;;23.83;11.88;;;9.80;99.90;;;;;;4997616;28;20217;-81
2020/12/16 05:48:03;;;;;;;18.85;9.57;;;9.80;99.90;;;;;;4997479;28;20221;-80
2020/12/16 05:50:33;;;;;;;23.75;9.48;;;9.70;99.90;;;;;;5015968;28;20253;-80
2020/12/16 05:53:29;;;;;;;21.10;10.40;;;9.80;99.90;;;;;;5016046;28;20170;-80
2020/12/16 05:56:02;;;;;;;20.77;10.95;;;9.70;99.90;;;;;;4986047;28;20194;-81
2020/12/16 05:58:32;;;;;;;23.25;11.70;;;9.70;99.90;;;;;;5015633;28;20619;-81
2020/12/16 06:01:05;;;;;;;19.02;10.68;;;9.80;99.90;;;;;;4998332;28;20604;-81
2020/12/16 06:03:33;;;;;;;19.88;8.85;;;9.80;99.90;;;;;;5015217;28;20609;-81
2020/12/16 06:06:01;;;;;;;22.70;11.73;;;9.70;99.90;;;;;;5016218;28;20163;-80
2020/12/16 06:08:36;;;;;;;20.17;11.00;;;9.70;99.90;;;;;;5015242;28;20204;-80
2020/12/16 06:11:04;;;;;;;20.33;10.80;;;9.80;99.90;;;;;;5014075;28;20497;-79
2020/12/16 06:13:29;;;;;;;19.20;10.60;;;9.70;99.90;;;;;;5012885;28;20592;-78
2020/12/16 06:15:58;;;;;;;24.23;12.13;;;9.70;99.90;;;;;;5012503;28;20209;-77
2020/12/16 06:18:29;;;;;;;27.15;12.20;;;9.80;99.90;;;;;;5012796;28;20533;-79
2020/12/16 06:20:55;;;;;;;23.65;10.85;;;9.80;99.90;;;;;;4995300;28;20162;-79
2020/12/16 06:23:30;;;;;;;20.02;11.73;;;9.80;99.90;;;;;;4996284;28;20196;-80
2020/12/16 06:25:58;;;;;;;19.05;11.00;;;9.90;99.90;;;;;;5016477;28;20181;-78
2020/12/16 06:28:25;;;;;;;27.52;11.07;;;10.20;99.90;;;;;;5018471;28;20564;-80
2020/12/16 06:31:32;;;;;;;17.08;9.45;;;10.30;99.90;;;;;;5014852;28;20198;-81
2020/12/16 06:34:08;;;;;;;16.40;9.93;;;10.30;99.90;;;;;;4994846;28;20219;-79
2020/12/16 06:36:41;;;;;;;19.90;10.82;;;10.40;99.90;;;;;;4985821;28;20700;-79
2020/12/16 06:39:18;;;;;;;18.73;10.73;;;10.50;99.90;;;;;;4997299;28;20201;-79
2020/12/16 06:41:57;;;;;;;16.48;10.05;;;10.50;99.90;;;;;;5021902;28;20260;-79
2020/12/16 06:44:23;;;;;;;18.90;11.68;;;10.60;99.90;;;;;;5016671;28;20197;-79
2020/12/16 06:46:52;;;;;;;24.35;11.55;;;10.60;99.90;;;;;;5016900;28;20185;-80
2020/12/16 06:49:23;;;;;;;32.13;13.18;;;10.60;99.90;;;;;;5035013;28;20166;-81
2020/12/16 06:51:50;;;;;;;15.57;9.38;;;10.60;99.90;;;;;;5017146;28;20227;-81
2020/12/16 06:54:17;;;;;;;19.48;10.35;;;10.50;99.90;;;;;;5035466;28;20189;-81
2020/12/16 06:56:45;;;;;;;21.50;11.93;;;10.40;99.90;;;;;;5027479;28;20193;-80
2020/12/16 06:59:42;;;;;;;22.63;11.75;;;10.20;99.90;;;;;;5014605;28;20194;-80
2020/12/16 07:05:40;;;;;;;22.10;10.50;;;10.10;99.90;;;;;;5018944;28;20197;-78
2020/12/16 07:08:06;;;;;;;25.58;12.05;;;10.10;99.90;;;;;;5022223;28;20178;-81
2020/12/16 07:10:41;;;;;;;16.38;9.55;;;10.00;99.90;;;;;;5019385;28;20177;-80
2020/12/16 07:13:21;;;;;;;19.85;10.10;;;10.00;99.90;;;;;;5017439;28;20284;-79
2020/12/16 07:15:55;;;;;;;31.17;12.38;;;10.00;99.90;;;;;;5018919;28;20178;-78
2020/12/16 07:18:23;;;;;;;21.17;12.18;;;10.00;99.90;;;;;;5037298;28;20736;-79
2020/12/16 07:20:49;;;;;;;25.13;12.90;;;10.00;99.90;;;;;;5036798;28;20200;-79
2020/12/16 07:23:15;;;;;;;25.80;12.00;;;10.00;99.90;;;;;;5036981;28;20679;-77
2020/12/16 07:25:46;;;;;;;21.13;11.03;;;10.10;99.90;;;;;;5006197;28;20424;-76
2020/12/16 07:28:12;;;;;;;21.23;11.75;;;10.10;99.90;;;;;;5015679;28;20401;-76
2020/12/16 07:30:51;;;;;;;25.83;13.70;;;10.10;99.90;;;;;;5009777;28;20205;-77
2020/12/16 07:33:17;;;;;;;23.38;12.00;;;10.10;99.90;;;;;;5033710;28;20220;-77
2020/12/16 07:35:47;;;;;;;23.02;12.63;;;10.20;99.90;;;;;;5027067;28;20331;-77
2020/12/16 07:38:15;;;;;;;24.67;12.43;;;10.20;99.90;;;;;;5017180;28;20284;-77
2020/12/16 07:40:41;;;;;;;20.42;11.27;;;10.10;99.90;;;;;;5033807;28;20268;-77
2020/12/16 07:43:09;;;;;;;25.58;13.48;;;10.10;99.90;;;;;;5017042;28;20189;-76
2020/12/16 07:45:35;;;;;;;31.88;13.43;;;10.00;99.90;;;;;;5020420;28;20206;-76
2020/12/16 07:48:05;;;;;;;27.73;13.13;;;10.00;99.90;;;;;;5034914;28;20212;-76
2020/12/16 07:50:31;;;;;;;21.77;11.52;;;10.10;99.90;;;;;;5034778;28;20498;-77
2020/12/16 07:52:57;;;;;;;26.97;12.53;;;10.10;99.90;;;;;;5016812;28;20277;-77
2020/12/16 07:55:23;;;;;;;22.33;11.50;;;10.20;99.90;;;;;;5021730;28;20214;-76
2020/12/16 07:57:49;;;;;;;42.08;15.20;;;10.20;99.90;;;;;;4999249;28;20201;-76
2020/12/16 08:00:21;;;;;;;24.93;11.73;;;10.20;99.90;;;;;;4995637;28;20219;-78
2020/12/16 08:02:54;;;;;;;22.50;12.30;;;10.40;99.90;;;;;;5015552;28;20412;-79
2020/12/16 08:05:24;;;;;;;27.25;13.55;;;10.40;99.90;;;;;;4999174;28;20194;-77
2020/12/16 08:07:51;;;;;;;29.52;14.25;;;10.40;99.90;;;;;;5019145;28;20181;-78
2020/12/16 08:10:17;;;;;;;29.75;14.18;;;10.50;99.90;;;;;;5008666;28;20182;-76
2020/12/16 08:12:43;;;;;;;23.90;11.93;;;10.60;99.90;;;;;;5018958;28;20184;-76
2020/12/16 08:15:19;;;;;;;25.23;13.50;;;10.60;99.90;;;;;;5015409;28;20429;-77
2020/12/16 08:17:51;;;;;;;24.70;12.25;;;10.70;99.90;;;;;;5029076;28;20215;-77
2020/12/16 08:20:40;;;;;;;20.83;12.38;;;10.70;99.90;;;;;;5031972;28;20194;-81
2020/12/16 08:23:11;;;;;;;24.48;12.13;;;10.90;99.90;;;;;;5036630;28;20198;-82
2020/12/16 08:25:37;;;;;;;22.80;9.65;;;10.90;99.90;;;;;;5011780;28;20166;-77
2020/12/16 08:28:06;;;;;;;20.30;12.13;;;10.90;99.90;;;;;;4997543;28;20181;-76
2020/12/16 08:30:32;;;;;;;29.50;13.27;;;10.90;99.90;;;;;;5018027;28;20648;-75
2020/12/16 08:33:13;;;;;;;22.92;11.20;;;10.80;99.90;;;;;;5032427;28;20174;-76
2020/12/16 08:35:48;;;;;;;22.52;11.82;;;10.80;99.90;;;;;;5004327;28;20665;-78
2020/12/16 08:38:26;;;;;;;22.58;11.20;;;10.80;99.90;;;;;;5028011;28;20225;-79
2020/12/16 08:40:56;;;;;;;24.02;12.65;;;10.70;99.90;;;;;;5005066;28;20633;-79
2020/12/16 08:43:28;;;;;;;23.50;11.40;;;10.60;99.90;;;;;;5016387;28;20232;-80
2020/12/16 08:46:09;;;;;;;22.02;11.07;;;10.60;99.90;;;;;;5010241;28;20192;-79
2020/12/16 08:48:48;;;;;;;23.67;12.93;;;10.60;99.90;;;;;;5019391;28;20557;-77
2020/12/16 08:51:32;;;;;;;28.13;12.93;;;10.60;99.90;;;;;;4997370;28;20173;-78
2020/12/16 08:54:08;;;;;;;22.75;12.20;;;10.60;99.90;;;;;;5019748;28;20198;-78
2020/12/16 08:56:45;;;;;;;21.85;11.88;;;10.60;99.90;;;;;;5014697;28;20180;-78
2020/12/16 08:59:22;;;;;;;20.17;11.60;;;10.60;99.90;;;;;;4997230;28;20590;-78
2020/12/16 09:01:51;;;;;;;21.05;11.85;;;10.60;99.90;;;;;;5014965;28;20565;-78
2020/12/16 09:04:56;;;;;;;23.10;11.85;;;10.60;99.90;;;;;;5004062;28;20703;-76
2020/12/16 09:07:24;;;;;;;21.83;11.88;;;10.60;99.90;;;;;;4999413;28;20652;-75
2020/12/16 09:09:50;;;;;;;19.75;10.73;;;10.60;99.90;;;;;;5002613;28;20182;-77
2020/12/16 09:12:19;;;;;;;24.97;13.47;;;10.60;99.90;;;;;;5014203;28;20201;-78
2020/12/16 09:14:51;;;;;;;24.10;12.40;;;10.60;99.90;;;;;;5018654;28;20201;-79
2020/12/16 09:17:17;;;;;;;34.10;14.63;;;10.60;99.90;;;;;;5016347;28;20249;-79
2020/12/16 09:19:43;;;;;;;39.70;17.20;;;10.60;99.90;;;;;;5008454;28;20201;-79
2020/12/16 09:22:08;;;;;;;39.47;20.70;;;10.60;99.90;;;;;;5006732;28;20178;-80
2020/12/16 09:24:34;;;;;;;41.90;18.87;;;10.60;99.90;;;;;;5017694;28;20478;-79
2020/12/16 09:27:08;;;;;;;32.30;16.47;;;10.60;99.90;;;;;;5019364;28;20191;-79
2020/12/16 09:29:41;;;;;;;32.25;14.00;;;10.60;99.90;;;;;;5016622;28;20261;-79
2020/12/16 09:32:10;;;;;;;23.25;12.82;;;10.60;99.90;;;;;;5014716;28;20178;-79
2020/12/16 09:34:41;;;;;;;27.27;15.05;;;10.70;99.90;;;;;;5001347;28;20250;-79
2020/12/16 09:37:18;;;;;;;25.17;12.88;;;10.70;99.90;;;;;;5014772;28;20186;-78
2020/12/16 09:39:46;;;;;;;23.60;11.80;;;10.70;99.90;;;;;;5027260;28;20198;-77
2020/12/16 09:42:18;;;;;;;20.70;11.77;;;10.70;99.90;;;;;;5019168;28;20181;-78
2020/12/16 09:44:45;;;;;;;25.25;12.13;;;10.70;99.90;;;;;;4996084;28;20214;-79
2020/12/16 09:47:24;;;;;;;27.10;13.70;;;10.80;99.90;;;;;;5012364;28;20232;-78
2020/12/16 09:50:04;;;;;;;26.58;12.48;;;11.00;99.90;;;;;;5027399;28;20177;-77
2020/12/16 09:52:32;;;;;;;19.73;11.50;;;11.00;99.90;;;;;;5005077;28;20199;-81
2020/12/16 09:55:11;;;;;;;20.70;11.25;;;10.90;99.90;;;;;;5018580;28;20279;-81
2020/12/16 09:57:37;;;;;;;21.13;11.77;;;10.90;99.90;;;;;;5009267;28;20165;-81
2020/12/16 10:00:05;;;;;;;25.10;12.37;;;10.90;99.90;;;;;;5003676;28;20266;-80
2020/12/16 10:02:31;;;;;;;21.25;10.32;;;10.90;99.90;;;;;;5000956;28;20413;-82
2020/12/16 10:04:57;;;;;;;24.25;11.45;;;11.00;99.90;;;;;;4999589;28;20309;-80
2020/12/16 10:07:23;;;;;;;22.30;11.20;;;10.90;99.90;;;;;;5030718;28;20213;-82
2020/12/16 10:09:54;;;;;;;23.17;12.03;;;10.90;99.90;;;;;;5025354;28;20764;-80
2020/12/16 10:12:24;;;;;;;21.40;11.48;;;10.90;99.90;;;;;;5004545;28;20182;-80
2020/12/16 10:14:50;;;;;;;24.45;11.73;;;10.90;99.90;;;;;;5015527;28;20194;-80
2020/12/16 10:17:20;;;;;;;26.45;12.90;;;10.90;99.90;;;;;;5015548;28;20613;-79
2020/12/16 10:19:46;;;;;;;17.58;11.02;;;11.00;99.90;;;;;;5000153;28;20205;-80
2020/12/16 10:22:12;;;;;;;22.93;12.40;;;10.90;99.90;;;;;;5016585;28;20232;-80
2020/12/16 10:24:38;;;;;;;22.30;9.97;;;11.00;99.90;;;;;;4999638;28;20452;-79
2020/12/16 10:27:06;;;;;;;22.57;10.67;;;11.00;99.90;;;;;;5014356;28;20174;-78
2020/12/16 10:29:31;;;;;;;23.23;12.32;;;11.10;99.90;;;;;;5013821;28;20246;-78
2020/12/16 10:31:57;;;;;;;29.70;13.07;;;11.10;99.90;;;;;;5023825;28;20176;-77
2020/12/16 10:34:26;;;;;;;23.03;12.60;;;11.20;99.90;;;;;;5024527;28;20194;-78
2020/12/16 10:36:53;;;;;;;25.33;11.15;;;11.20;99.90;;;;;;5038278;28;20182;-78
2020/12/16 10:39:20;;;;;;;28.40;12.75;;;11.20;99.90;;;;;;5032910;28;20220;-77
2020/12/16 10:42:00;;;;;;;27.35;12.50;;;11.20;99.90;;;;;;5017251;28;20204;-78
2020/12/16 10:44:27;;;;;;;22.70;12.38;;;11.20;99.90;;;;;;5021688;28;20676;-79
2020/12/16 10:46:59;;;;;;;25.02;12.20;;;11.20;99.90;;;;;;5037474;28;20683;-78
2020/12/16 10:49:26;;;;;;;22.50;10.90;;;11.20;99.90;;;;;;5036962;28;20182;-79
2020/12/16 10:51:53;;;;;;;35.30;13.30;;;11.20;99.90;;;;;;5037129;28;20185;-79
2020/12/16 10:54:20;;;;;;;20.23;11.82;;;11.10;99.90;;;;;;5034358;28;20708;-79
2020/12/16 10:56:54;;;;;;;34.67;13.98;;;11.10;99.90;;;;;;5024267;28;20177;-78
2020/12/16 10:59:20;;;;;;;20.42;11.27;;;11.10;99.90;;;;;;5017558;28;20212;-78
2020/12/16 11:01:46;;;;;;;20.00;11.98;;;11.00;99.90;;;;;;5000950;28;20236;-78
2020/12/16 11:04:12;;;;;;;25.90;13.47;;;11.00;99.90;;;;;;5010912;28;20209;-78
2020/12/16 11:06:47;;;;;;;27.83;12.30;;;11.00;99.90;;;;;;5019302;28;20170;-78
2020/12/16 11:09:17;;;;;;;27.77;12.07;;;11.00;99.90;;;;;;5022994;28;20266;-78
2020/12/16 11:11:47;;;;;;;22.13;13.05;;;11.10;99.90;;;;;;5017813;28;20162;-79
2020/12/16 11:14:13;;;;;;;23.95;11.30;;;11.00;99.90;;;;;;5017428;28;20292;-78
2020/12/16 11:16:42;;;;;;;28.13;11.37;;;11.00;99.90;;;;;;5029335;28;20261;-80
2020/12/16 11:19:12;;;;;;;20.05;11.15;;;11.00;99.90;;;;;;5016904;28;20502;-79
2020/12/16 11:21:45;;;;;;;28.23;13.90;;;11.10;99.90;;;;;;5016036;28;20224;-79
2020/12/16 11:24:12;;;;;;;21.55;12.80;;;11.10;99.90;;;;;;4999858;28;20190;-79
2020/12/16 11:26:47;;;;;;;28.13;12.60;;;11.10;99.90;;;;;;4998423;28;20202;-78
2020/12/16 11:29:15;;;;;;;28.42;12.60;;;11.10;99.90;;;;;;5019265;28;20177;-80
2020/12/16 11:31:46;;;;;;;21.38;11.20;;;11.00;99.90;;;;;;5006592;28;20261;-78
2020/12/16 11:34:13;;;;;;;21.92;11.60;;;11.00;99.90;;;;;;5035945;28;20190;-78
2020/12/16 11:36:43;;;;;;;21.40;11.10;;;11.10;99.90;;;;;;5035850;28;20196;-79
2020/12/16 11:39:09;;;;;;;22.15;11.43;;;11.10;99.90;;;;;;5038020;28;20243;-79
2020/12/16 11:41:36;;;;;;;24.08;11.70;;;11.10;99.90;;;;;;5035391;28;20260;-79
2020/12/16 11:44:03;;;;;;;21.10;11.10;;;11.00;99.90;;;;;;5036631;28;20193;-79
2020/12/16 11:46:30;;;;;;;24.75;11.00;;;11.00;99.90;;;;;;5016972;28;20664;-79
2020/12/16 11:48:58;;;;;;;24.60;12.70;;;10.90;99.90;;;;;;5037623;28;20304;-78
2020/12/16 11:51:28;;;;;;;23.67;11.88;;;11.00;99.90;;;;;;5037109;28;20174;-78
2020/12/16 11:53:54;;;;;;;21.65;10.40;;;11.00;99.90;;;;;;5020300;28;20260;-79
2020/12/16 11:56:21;;;;;;;15.43;9.65;;;10.90;99.90;;;;;;5005914;28;20216;-78
2020/12/16 11:58:47;;;;;;;25.65;13.15;;;10.90;99.90;;;;;;5020497;28;20186;-78
2020/12/16 12:01:13;;;;;;;18.80;10.02;;;10.90;99.90;;;;;;4999758;28;20229;-77
2020/12/16 12:03:39;;;;;;;23.20;9.93;;;10.90;99.90;;;;;;4999480;28;20217;-78
2020/12/16 12:06:12;;;;;;;26.33;11.33;;;11.00;99.90;;;;;;5007732;28;20178;-79
2020/12/16 12:08:39;;;;;;;24.08;11.05;;;11.00;99.90;;;;;;4984579;28;20422;-78
2020/12/16 12:11:06;;;;;;;23.15;11.55;;;10.80;99.90;;;;;;5036914;28;20644;-77
2020/12/16 12:13:32;;;;;;;18.40;9.40;;;10.80;99.90;;;;;;5036625;28;20201;-77
2020/12/16 12:15:58;;;;;;;19.25;9.52;;;10.80;99.90;;;;;;5002094;28;20263;-78
2020/12/16 12:18:24;;;;;;;29.70;11.52;;;10.80;99.90;;;;;;5013797;28;20240;-77
2020/12/16 12:20:49;;;;;;;25.80;10.77;;;10.80;99.90;;;;;;5019238;28;20174;-78
2020/12/16 12:23:15;;;;;;;20.47;11.10;;;10.90;99.90;;;;;;5003905;28;20236;-79
2020/12/16 12:25:41;;;;;;;24.50;12.80;;;10.90;99.90;;;;;;5038727;28;20174;-79
2020/12/16 12:28:06;;;;;;;26.90;12.23;;;10.90;99.90;;;;;;5020776;28;20248;-79
2020/12/16 12:30:37;;;;;;;17.27;10.97;;;10.80;99.90;;;;;;5020381;28;20263;-79
2020/12/16 12:33:03;;;;;;;24.60;10.23;;;10.90;99.90;;;;;;5025484;28;20224;-79
2020/12/16 12:35:29;;;;;;;18.95;10.30;;;10.80;99.90;;;;;;4986222;28;20483;-79
2020/12/16 12:37:55;;;;;;;18.17;10.30;;;10.80;99.90;;;;;;5028896;28;20201;-78
2020/12/16 12:40:20;;;;;;;23.77;10.20;;;10.70;99.90;;;;;;5019122;28;20186;-78
2020/12/16 12:42:48;;;;;;;18.63;9.87;;;10.80;99.90;;;;;;5026324;28;20205;-78
2020/12/16 12:45:14;;;;;;;22.48;10.15;;;10.80;99.90;;;;;;4983659;28;20689;-79
2020/12/16 12:47:40;;;;;;;15.73;9.40;;;10.70;99.90;;;;;;5026496;28;20231;-80